Time;durP1;ratioP1;P1;durP2;ratioP2;P2;SDS_P1;SDS_P2;PMS_P1;PMS_P2;Temp;Humidity;BMP_temperature;BMP_pressure;BME280_temperature;BME280_humidity;BME280_pressure;Samples;Min_cycle;Max_cycle;Signal;HPM_P1;HPM_P2
2021/07/23 00:00:37;;;;;;;4.05;1.52;;;15.30;99.90;;;;;;5064403;28;20072;-71
2021/07/23 00:03:03;;;;;;;3.55;2.20;;;15.30;99.90;;;;;;5065219;28;20035;-70
2021/07/23 00:05:29;;;;;;;3.40;1.75;;;15.30;99.90;;;;;;5064622;28;20032;-70
2021/07/23 00:07:54;;;;;;;3.55;2.05;;;15.30;99.90;;;;;;5059555;28;20481;-71
2021/07/23 00:10:20;;;;;;;4.43;2.03;;;15.20;99.90;;;;;;5064406;28;20036;-70
2021/07/23 00:12:45;;;;;;;2.85;1.75;;;15.20;99.90;;;;;;5064486;28;20032;-69
2021/07/23 00:15:11;;;;;;;2.10;1.48;;;15.20;99.90;;;;;;5064497;28;20091;-70
2021/07/23 00:17:37;;;;;;;4.82;2.30;;;15.20;99.90;;;;;;5059897;28;20049;-71
2021/07/23 00:20:03;;;;;;;5.47;2.13;;;15.30;99.90;;;;;;5044615;28;20026;-70
2021/07/23 00:22:29;;;;;;;4.03;2.20;;;15.30;99.90;;;;;;5044332;28;20037;-70
2021/07/23 00:24:54;;;;;;;2.65;1.80;;;15.30;99.90;;;;;;5044483;28;20026;-72
2021/07/23 00:27:20;;;;;;;2.00;1.40;;;15.40;99.90;;;;;;5043385;28;20038;-68
2021/07/23 00:29:46;;;;;;;10.55;1.92;;;15.40;99.90;;;;;;5046572;28;20025;-71
2021/07/23 00:32:11;;;;;;;5.30;1.98;;;15.50;99.90;;;;;;5079738;28;20021;-71
2021/07/23 00:34:37;;;;;;;4.45;1.63;;;15.50;99.90;;;;;;5062847;28;20104;-70
2021/07/23 00:37:03;;;;;;;5.10;2.00;;;15.50;99.90;;;;;;5064232;28;20040;-70
2021/07/23 00:39:28;;;;;;;2.00;1.60;;;15.60;99.90;;;;;;5064371;28;20041;-70
2021/07/23 00:41:54;;;;;;;3.50;2.00;;;15.60;99.90;;;;;;5064182;28;20025;-70
2021/07/23 00:44:19;;;;;;;2.20;1.55;;;15.70;99.90;;;;;;5064363;28;20055;-69
2021/07/23 00:46:45;;;;;;;3.00;1.50;;;15.60;99.90;;;;;;5064125;28;20025;-69
2021/07/23 00:49:12;;;;;;;1.85;1.58;;;15.80;99.90;;;;;;5064247;28;20021;-69
2021/07/23 00:51:37;;;;;;;5.38;1.65;;;15.70;99.90;;;;;;5063900;28;20079;-71
2021/07/23 00:54:04;;;;;;;10.00;2.50;;;15.70;99.90;;;;;;5064134;28;20381;-71
2021/07/23 00:56:31;;;;;;;6.13;2.08;;;15.80;99.90;;;;;;5064034;28;20469;-68
2021/07/23 00:58:59;;;;;;;4.68;2.17;;;15.80;99.90;;;;;;5053439;28;20061;-71
2021/07/23 01:01:25;;;;;;;2.95;1.85;;;15.80;99.90;;;;;;5044203;28;20393;-70
2021/07/23 01:03:51;;;;;;;4.15;2.20;;;15.80;99.90;;;;;;5044407;28;20028;-72
2021/07/23 01:06:17;;;;;;;5.07;2.30;;;15.90;99.90;;;;;;5044332;28;20030;-72
2021/07/23 01:08:43;;;;;;;8.48;2.00;;;15.90;99.90;;;;;;5043944;28;20542;-70
2021/07/23 01:11:11;;;;;;;3.50;1.98;;;15.90;99.90;;;;;;5057400;28;20473;-70
2021/07/23 01:13:39;;;;;;;9.50;2.72;;;15.90;99.90;;;;;;5067254;28;20032;-70
2021/07/23 01:16:05;;;;;;;4.55;2.25;;;15.90;99.90;;;;;;5067620;28;20084;-70
2021/07/23 01:18:30;;;;;;;4.35;2.40;;;15.80;99.90;;;;;;5067414;28;20069;-70
2021/07/23 01:20:57;;;;;;;4.70;2.25;;;15.90;99.90;;;;;;5067759;28;20025;-70
2021/07/23 01:23:34;;;;;;;3.60;2.08;;;15.90;99.90;;;;;;5067711;28;20469;-69
2021/07/23 01:26:02;;;;;;;4.10;2.38;;;15.90;99.90;;;;;;5067419;28;20088;-70
2021/07/23 01:28:29;;;;;;;3.80;2.25;;;15.90;99.90;;;;;;5067204;28;20474;-71
2021/07/23 01:30:55;;;;;;;6.60;2.15;;;15.90;99.90;;;;;;5067757;28;20032;-71
2021/07/23 01:33:21;;;;;;;2.55;1.80;;;15.90;99.90;;;;;;5067494;28;20029;-69
2021/07/23 01:35:47;;;;;;;6.25;2.10;;;15.90;99.90;;;;;;5067443;28;20021;-73
2021/07/23 01:38:22;;;;;;;4.47;2.40;;;15.90;99.90;;;;;;5067066;28;20071;-71
2021/07/23 01:40:48;;;;;;;5.22;2.58;;;15.90;99.90;;;;;;5067336;28;20025;-71
2021/07/23 01:43:16;;;;;;;4.50;2.15;;;15.90;99.90;;;;;;5066986;28;20044;-69
2021/07/23 01:45:42;;;;;;;9.55;2.60;;;15.90;99.90;;;;;;5067122;28;20064;-71
2021/07/23 01:48:08;;;;;;;6.65;1.52;;;15.80;99.90;;;;;;5067075;28;20028;-73
2021/07/23 01:50:33;;;;;;;4.70;2.30;;;15.90;99.90;;;;;;5066802;28;20028;-70
2021/07/23 01:52:59;;;;;;;4.53;2.67;;;16.00;99.90;;;;;;5065689;28;20029;-70
2021/07/23 01:55:25;;;;;;;3.85;1.92;;;15.90;99.90;;;;;;5064315;28;20025;-70
2021/07/23 01:57:51;;;;;;;3.30;1.90;;;15.90;99.90;;;;;;5066603;28;20043;-74
2021/07/23 02:00:16;;;;;;;3.42;1.88;;;16.00;99.90;;;;;;5066686;28;20037;-72
2021/07/23 02:02:42;;;;;;;4.53;2.55;;;15.90;99.90;;;;;;5066373;28;20081;-69
2021/07/23 02:05:08;;;;;;;3.83;1.92;;;15.90;99.90;;;;;;5066477;28;20028;-70
2021/07/23 02:07:34;;;;;;;2.58;2.05;;;15.90;99.90;;;;;;5066767;28;20036;-74
2021/07/23 02:10:00;;;;;;;5.95;1.67;;;16.00;99.90;;;;;;5066746;28;20029;-72
2021/07/23 02:12:26;;;;;;;2.45;1.50;;;16.00;99.90;;;;;;5066697;28;20127;-71
2021/07/23 02:14:52;;;;;;;3.70;2.00;;;15.90;99.90;;;;;;5066870;28;20049;-68
2021/07/23 02:17:17;;;;;;;6.20;2.45;;;15.90;99.90;;;;;;5082338;28;20092;-72
2021/07/23 02:19:43;;;;;;;4.55;2.53;;;15.90;99.90;;;;;;5066595;28;20033;-71
2021/07/23 02:22:09;;;;;;;9.00;2.55;;;16.00;99.90;;;;;;5066492;28;20028;-70
2021/07/23 02:24:34;;;;;;;3.70;2.20;;;15.90;99.90;;;;;;5066490;28;20043;-69
2021/07/23 02:27:00;;;;;;;4.60;2.58;;;15.90;99.90;;;;;;5066520;28;20111;-69
2021/07/23 02:29:26;;;;;;;3.58;2.50;;;15.90;99.90;;;;;;5066219;28;20037;-72
2021/07/23 02:31:51;;;;;;;12.77;3.03;;;15.90;99.90;;;;;;5066628;28;20028;-73
2021/07/23 02:34:17;;;;;;;6.82;3.30;;;15.90;99.90;;;;;;5066420;28;20021;-75
2021/07/23 02:36:43;;;;;;;14.27;3.53;;;15.80;99.90;;;;;;5066200;28;20029;-72
2021/07/23 02:39:09;;;;;;;6.53;3.08;;;15.80;99.90;;;;;;5066126;28;20048;-69
2021/07/23 02:41:34;;;;;;;7.38;3.53;;;15.70;99.90;;;;;;5066080;28;20035;-70
2021/07/23 02:44:00;;;;;;;12.73;3.90;;;15.70;99.90;;;;;;5065972;28;20028;-69
2021/07/23 02:46:25;;;;;;;6.40;3.20;;;15.70;99.90;;;;;;5065983;28;20104;-70
2021/07/23 02:48:51;;;;;;;6.10;3.47;;;15.60;99.90;;;;;;5066413;28;20041;-69
2021/07/23 02:51:17;;;;;;;4.75;2.60;;;15.60;99.90;;;;;;5065923;28;20037;-69
2021/07/23 02:53:42;;;;;;;8.65;3.42;;;15.60;99.90;;;;;;5065668;28;20084;-69
2021/07/23 02:56:08;;;;;;;8.50;3.70;;;15.50;99.90;;;;;;5065851;28;20029;-71
2021/07/23 02:58:40;;;;;;;5.85;3.25;;;15.50;99.90;;;;;;5065683;28;20098;-72
2021/07/23 03:01:06;;;;;;;6.60;3.17;;;15.50;99.90;;;;;;5065714;28;20033;-70
2021/07/23 03:03:32;;;;;;;6.38;3.50;;;15.50;99.90;;;;;;5065746;28;20029;-69
2021/07/23 03:06:01;;;;;;;14.43;4.00;;;15.50;99.90;;;;;;5065761;28;20106;-70
2021/07/23 03:08:27;;;;;;;14.15;3.58;;;15.50;99.90;;;;;;5065781;28;20543;-70
2021/07/23 03:10:53;;;;;;;8.95;4.05;;;15.60;99.90;;;;;;5065621;28;20025;-70
2021/07/23 03:13:19;;;;;;;8.63;3.78;;;15.60;99.90;;;;;;5065510;28;20051;-72
2021/07/23 03:15:44;;;;;;;9.32;3.35;;;15.50;99.90;;;;;;5065419;28;20589;-69
2021/07/23 03:18:10;;;;;;;7.15;3.33;;;15.50;99.90;;;;;;5064109;28;20049;-71
2021/07/23 03:20:39;;;;;;;9.05;3.75;;;15.60;99.90;;;;;;5064124;28;20029;-71
2021/07/23 03:23:06;;;;;;;5.78;3.00;;;15.60;99.90;;;;;;5065150;28;20056;-69
2021/07/23 03:25:32;;;;;;;6.78;3.67;;;15.60;99.90;;;;;;5065072;28;20029;-73
2021/07/23 03:27:58;;;;;;;8.30;3.70;;;15.60;99.90;;;;;;5065243;28;20025;-71
2021/07/23 03:30:24;;;;;;;5.97;3.15;;;15.60;99.90;;;;;;5065409;28;20021;-67
2021/07/23 03:32:49;;;;;;;5.65;3.10;;;15.60;99.90;;;;;;5065378;28;20056;-70
2021/07/23 03:35:15;;;;;;;4.70;2.92;;;15.50;99.90;;;;;;5064651;28;20136;-72
2021/07/23 03:37:41;;;;;;;6.88;3.63;;;15.60;99.90;;;;;;5064983;28;20048;-68
2021/07/23 03:40:07;;;;;;;7.72;3.63;;;15.60;99.90;;;;;;5065109;28;20053;-69
2021/07/23 03:42:33;;;;;;;8.40;3.30;;;15.70;99.90;;;;;;5064697;28;20048;-70
2021/07/23 03:44:59;;;;;;;8.93;3.65;;;15.60;99.90;;;;;;5064952;28;20036;-68
2021/07/23 03:47:25;;;;;;;9.00;3.75;;;15.70;99.90;;;;;;5065052;28;20086;-70
2021/07/23 03:49:51;;;;;;;12.68;3.60;;;15.70;99.90;;;;;;5065316;28;20025;-69
2021/07/23 03:52:17;;;;;;;12.27;4.53;;;15.70;99.90;;;;;;5064972;28;21057;-70
2021/07/23 03:54:42;;;;;;;5.00;3.08;;;15.70;99.90;;;;;;5064883;28;20029;-70
2021/07/23 03:57:08;;;;;;;5.18;2.97;;;15.70;99.90;;;;;;5064689;28;20032;-70
2021/07/23 03:59:34;;;;;;;9.90;4.25;;;15.70;99.90;;;;;;5064621;28;20040;-67
2021/07/23 04:02:00;;;;;;;10.90;4.50;;;15.60;99.90;;;;;;5064728;28;20636;-69
2021/07/23 04:04:27;;;;;;;8.23;3.33;;;15.70;99.90;;;;;;5064833;28;20029;-71
2021/07/23 04:06:59;;;;;;;10.77;3.83;;;15.70;99.90;;;;;;5080281;28;20032;-71
2021/07/23 04:09:26;;;;;;;12.43;3.42;;;15.70;99.90;;;;;;5064775;28;20374;-72
2021/07/23 04:11:52;;;;;;;8.68;4.05;;;15.80;99.90;;;;;;5064882;28;20117;-69
2021/07/23 04:14:20;;;;;;;9.35;3.33;;;15.80;99.90;;;;;;5064431;28;20044;-70
2021/07/23 04:16:46;;;;;;;5.90;3.15;;;15.80;99.90;;;;;;5064633;28;20041;-70
2021/07/23 04:19:13;;;;;;;11.30;3.25;;;15.80;99.90;;;;;;5064497;28;20048;-69
2021/07/23 04:21:38;;;;;;;7.18;3.10;;;15.70;99.90;;;;;;5064503;28;20080;-68
2021/07/23 04:24:05;;;;;;;11.02;4.57;;;15.80;99.90;;;;;;5060497;28;20025;-69
2021/07/23 04:26:31;;;;;;;12.30;3.75;;;15.80;99.90;;;;;;5045196;28;20490;-73
2021/07/23 04:28:57;;;;;;;8.32;3.28;;;15.80;99.90;;;;;;5058315;28;20025;-70
2021/07/23 04:31:22;;;;;;;6.10;3.22;;;15.80;99.90;;;;;;5064785;28;20025;-71
2021/07/23 04:33:48;;;;;;;11.65;3.65;;;15.80;99.90;;;;;;5064656;28;20472;-70
2021/07/23 04:36:14;;;;;;;6.88;3.58;;;15.80;99.90;;;;;;5064307;28;20033;-69
2021/07/23 04:38:39;;;;;;;6.82;3.58;;;15.80;99.90;;;;;;5064427;28;20059;-71
2021/07/23 04:41:05;;;;;;;10.95;3.63;;;15.80;99.90;;;;;;5064509;28;20048;-70
2021/07/23 04:43:31;;;;;;;6.05;3.45;;;15.80;99.90;;;;;;5061660;28;20450;-73
2021/07/23 04:45:57;;;;;;;6.25;3.55;;;15.70;99.90;;;;;;5044261;28;20025;-73
2021/07/23 04:48:24;;;;;;;7.55;3.80;;;15.70;99.90;;;;;;5047406;28;20790;-72
2021/07/23 04:50:50;;;;;;;8.98;3.88;;;15.70;99.90;;;;;;5048264;28;20037;-71
2021/07/23 04:53:16;;;;;;;7.72;3.97;;;15.80;99.90;;;;;;5048369;28;20025;-71
2021/07/23 04:55:42;;;;;;;6.78;3.15;;;15.70;99.90;;;;;;5048148;28;20052;-75
2021/07/23 04:58:07;;;;;;;10.00;3.80;;;15.60;99.90;;;;;;5047522;28;20041;-72
2021/07/23 05:00:33;;;;;;;7.18;3.38;;;15.70;99.90;;;;;;5048068;28;20052;-69
2021/07/23 05:02:59;;;;;;;12.38;3.42;;;15.60;99.90;;;;;;5047371;28;20100;-72
2021/07/23 05:05:24;;;;;;;10.85;4.30;;;15.60;99.90;;;;;;5047889;28;20083;-71
2021/07/23 05:07:50;;;;;;;12.45;4.70;;;15.80;99.90;;;;;;5050568;28;20508;-71
2021/07/23 05:10:16;;;;;;;9.75;4.07;;;15.70;99.90;;;;;;5061732;28;20063;-71
2021/07/23 05:12:43;;;;;;;8.65;4.45;;;15.70;99.90;;;;;;5046356;28;20026;-71
2021/07/23 05:15:11;;;;;;;8.05;3.85;;;15.80;99.90;;;;;;5053376;28;20050;-73
2021/07/23 05:17:38;;;;;;;10.65;4.30;;;15.70;99.90;;;;;;5053254;28;20456;-69
2021/07/23 05:20:06;;;;;;;20.08;4.28;;;15.80;99.90;;;;;;5066284;28;20425;-70
2021/07/23 05:22:32;;;;;;;11.45;4.72;;;15.80;99.90;;;;;;5067420;28;20025;-69
2021/07/23 05:24:59;;;;;;;8.43;3.85;;;15.80;99.90;;;;;;5067659;28;20029;-72
2021/07/23 05:27:25;;;;;;;13.43;5.22;;;15.80;99.90;;;;;;5066277;28;20032;-69
2021/07/23 05:29:51;;;;;;;10.20;3.92;;;15.80;99.90;;;;;;5067718;28;20029;-70
2021/07/23 05:32:18;;;;;;;12.60;4.95;;;15.90;99.90;;;;;;5067573;28;20059;-69
2021/07/23 05:34:44;;;;;;;14.48;4.78;;;15.90;99.90;;;;;;5067405;28;20053;-69
2021/07/23 05:37:09;;;;;;;12.00;4.93;;;15.90;99.90;;;;;;5056353;28;20091;-71
2021/07/23 05:39:38;;;;;;;11.43;4.90;;;15.80;99.90;;;;;;5054457;28;20041;-71
2021/07/23 05:42:04;;;;;;;8.80;3.72;;;15.80;99.90;;;;;;5067293;28;20053;-71
2021/07/23 05:44:31;;;;;;;11.23;4.93;;;15.90;99.90;;;;;;5056252;28;20386;-72
2021/07/23 05:47:00;;;;;;;10.38;4.35;;;15.90;99.90;;;;;;5047238;28;20033;-72
2021/07/23 05:49:27;;;;;;;10.90;5.22;;;15.90;99.90;;;;;;5047218;28;20029;-72
2021/07/23 05:51:53;;;;;;;11.32;5.35;;;15.90;99.90;;;;;;5047168;28;20189;-73
2021/07/23 05:54:19;;;;;;;11.93;5.20;;;15.90;99.90;;;;;;5046976;28;20033;-71
2021/07/23 05:56:45;;;;;;;12.57;6.03;;;15.90;99.90;;;;;;5046852;28;20025;-70
2021/07/23 05:59:10;;;;;;;7.53;4.40;;;16.00;99.90;;;;;;5046241;28;20121;-69
2021/07/23 06:01:36;;;;;;;14.13;5.78;;;16.00;99.90;;;;;;5046867;28;20037;-70
2021/07/23 06:04:01;;;;;;;15.50;5.03;;;16.00;99.90;;;;;;5050037;28;20039;-72
2021/07/23 06:06:29;;;;;;;13.43;5.07;;;16.10;99.90;;;;;;5056858;28;20053;-73
2021/07/23 06:08:54;;;;;;;10.65;4.85;;;16.10;99.90;;;;;;5047067;28;20029;-71
2021/07/23 06:11:20;;;;;;;16.20;5.43;;;16.10;99.90;;;;;;5066985;28;20036;-71
2021/07/23 06:13:46;;;;;;;12.23;5.95;;;16.10;99.90;;;;;;5065999;28;20055;-70
2021/07/23 06:16:13;;;;;;;15.07;5.53;;;16.20;99.90;;;;;;5065272;28;20032;-72
2021/07/23 06:18:39;;;;;;;10.85;5.13;;;16.20;99.90;;;;;;5064984;28;20037;-72
2021/07/23 06:21:13;;;;;;;12.00;4.95;;;16.30;99.90;;;;;;5065163;28;20061;-73
2021/07/23 06:23:39;;;;;;;10.60;5.15;;;16.30;99.90;;;;;;5066167;28;20025;-71
2021/07/23 06:26:06;;;;;;;16.40;5.43;;;16.30;99.90;;;;;;5066199;28;20048;-71
2021/07/23 06:28:32;;;;;;;16.65;5.55;;;16.30;99.90;;;;;;5066141;28;20084;-73
2021/07/23 06:31:04;;;;;;;13.60;5.38;;;16.30;99.90;;;;;;5066328;28;20051;-72
2021/07/23 06:33:31;;;;;;;10.32;5.40;;;16.40;99.90;;;;;;5066504;28;20055;-73
2021/07/23 06:35:57;;;;;;;15.20;6.15;;;16.40;99.90;;;;;;5066412;28;20032;-74
2021/07/23 06:38:23;;;;;;;12.60;5.88;;;16.40;99.90;;;;;;5059899;28;20026;-73
2021/07/23 06:40:49;;;;;;;14.65;5.78;;;16.40;99.90;;;;;;5059532;28;20032;-72
2021/07/23 06:43:15;;;;;;;12.40;4.60;;;16.40;99.90;;;;;;5060724;28;20025;-72
2021/07/23 06:45:40;;;;;;;11.50;5.88;;;16.40;99.90;;;;;;5052578;28;20965;-73
2021/07/23 06:48:06;;;;;;;10.85;5.20;;;16.40;99.90;;;;;;5046048;28;20025;-74
2021/07/23 06:50:32;;;;;;;10.23;4.70;;;16.40;99.90;;;;;;5052050;28;20037;-72
2021/07/23 06:53:00;;;;;;;15.60;5.38;;;16.40;99.90;;;;;;5066026;28;20056;-72
2021/07/23 06:55:26;;;;;;;14.18;4.63;;;16.40;99.90;;;;;;5066031;28;20052;-74
2021/07/23 06:57:52;;;;;;;12.73;5.57;;;16.40;99.90;;;;;;5065525;28;20135;-72
2021/07/23 07:00:17;;;;;;;13.23;5.53;;;16.40;99.90;;;;;;5065552;28;20029;-73
2021/07/23 07:02:43;;;;;;;9.73;4.50;;;16.40;99.90;;;;;;5065729;28;20029;-71
2021/07/23 07:05:09;;;;;;;10.98;5.00;;;16.40;99.90;;;;;;5056130;28;20021;-73
2021/07/23 07:07:35;;;;;;;11.68;5.53;;;16.40;99.90;;;;;;5056118;28;20030;-73
2021/07/23 07:10:00;;;;;;;15.48;5.15;;;16.50;99.90;;;;;;5049992;28;20025;-73
2021/07/23 07:12:26;;;;;;;8.50;4.57;;;16.50;99.90;;;;;;5051964;28;20041;-72
2021/07/23 07:14:52;;;;;;;15.35;6.28;;;16.50;99.90;;;;;;5060565;28;20045;-73
2021/07/23 07:17:21;;;;;;;14.38;6.22;;;16.50;99.90;;;;;;5063842;28;20051;-72
2021/07/23 07:19:48;;;;;;;13.65;6.05;;;16.50;99.90;;;;;;5059656;28;20041;-72
2021/07/23 07:22:16;;;;;;;11.85;5.13;;;16.50;99.90;;;;;;5058835;28;20021;-74
2021/07/23 07:24:41;;;;;;;7.93;4.13;;;16.50;99.90;;;;;;5045215;28;20049;-72
2021/07/23 07:27:07;;;;;;;11.60;6.57;;;16.60;99.90;;;;;;5060421;28;20025;-73
2021/07/23 07:29:32;;;;;;;8.90;4.88;;;16.60;99.90;;;;;;5064663;28;20381;-73
2021/07/23 07:31:58;;;;;;;10.10;4.60;;;16.60;99.90;;;;;;5064997;28;20024;-74
2021/07/23 07:34:34;;;;;;;16.25;6.03;;;16.70;99.90;;;;;;5059383;28;20025;-74
2021/07/23 07:37:00;;;;;;;10.07;4.90;;;16.70;99.90;;;;;;5047120;28;20026;-74
2021/07/23 07:39:26;;;;;;;14.55;5.25;;;16.80;99.90;;;;;;5051622;28;20499;-71
2021/07/23 07:41:52;;;;;;;16.77;5.72;;;16.60;99.90;;;;;;5044425;28;20056;-74
2021/07/23 07:44:18;;;;;;;15.82;6.28;;;16.70;99.90;;;;;;5063963;28;20068;-74
2021/07/23 07:46:43;;;;;;;16.10;5.47;;;16.90;99.90;;;;;;5056074;28;20037;-72
2021/07/23 07:49:09;;;;;;;10.10;4.47;;;16.80;99.90;;;;;;5044873;28;20025;-73
2021/07/23 07:51:34;;;;;;;13.68;6.38;;;16.80;99.90;;;;;;5045032;28;20043;-73
2021/07/23 07:54:00;;;;;;;15.57;6.22;;;16.70;99.90;;;;;;5043570;28;20088;-72
2021/07/23 07:56:25;;;;;;;17.13;5.47;;;16.80;99.90;;;;;;5045053;28;20022;-72
2021/07/23 07:58:54;;;;;;;10.95;4.95;;;16.90;99.90;;;;;;5043700;28;20048;-73
2021/07/23 08:01:20;;;;;;;18.88;6.13;;;16.90;99.90;;;;;;5044695;28;20056;-74
2021/07/23 08:03:46;;;;;;;18.23;5.65;;;16.90;99.90;;;;;;5043353;28;20033;-72
2021/07/23 08:06:20;;;;;;;10.75;5.60;;;17.00;99.90;;;;;;5042676;28;20064;-73
2021/07/23 08:08:47;;;;;;;13.45;4.95;;;17.00;99.90;;;;;;5042548;28;20021;-70
2021/07/23 08:11:13;;;;;;;10.65;5.25;;;17.00;99.90;;;;;;5043817;28;20048;-73
2021/07/23 08:13:39;;;;;;;15.38;6.25;;;17.10;99.90;;;;;;5044341;28;20061;-70
2021/07/23 08:16:05;;;;;;;13.63;6.30;;;17.10;99.90;;;;;;5044527;28;20390;-73
2021/07/23 08:18:31;;;;;;;10.90;5.35;;;17.20;99.90;;;;;;5043970;28;20091;-72
2021/07/23 08:20:59;;;;;;;12.13;5.00;;;17.30;99.90;;;;;;5046919;28;20025;-73
2021/07/23 08:23:24;;;;;;;11.57;4.68;;;17.40;99.90;;;;;;5050973;28;20036;-71
2021/07/23 08:25:50;;;;;;;12.68;5.00;;;17.30;99.90;;;;;;5051352;28;20049;-73
2021/07/23 08:28:16;;;;;;;9.75;5.32;;;17.40;99.90;;;;;;5050997;28;20022;-70
2021/07/23 08:30:42;;;;;;;16.73;5.28;;;17.50;99.90;;;;;;5051211;28;20030;-70
2021/07/23 08:33:08;;;;;;;12.20;5.13;;;17.50;99.90;;;;;;5050964;28;20029;-69
2021/07/23 08:35:35;;;;;;;16.10;6.20;;;17.50;99.90;;;;;;5051125;28;20025;-68
2021/07/23 08:38:01;;;;;;;13.95;5.30;;;17.50;99.90;;;;;;5050897;28;20032;-68
2021/07/23 08:40:26;;;;;;;14.05;5.10;;;17.50;99.90;;;;;;5049392;28;20080;-67
2021/07/23 08:42:52;;;;;;;19.52;6.68;;;17.40;99.90;;;;;;5050520;28;20160;-69
2021/07/23 08:45:18;;;;;;;9.93;5.80;;;17.30;99.90;;;;;;5051183;28;20093;-68
2021/07/23 08:47:43;;;;;;;14.13;6.75;;;17.30;99.90;;;;;;5060860;28;20388;-67
2021/07/23 08:50:09;;;;;;;13.13;6.45;;;17.30;99.90;;;;;;5062605;28;20461;-68
2021/07/23 08:52:47;;;;;;;15.82;7.38;;;17.20;99.90;;;;;;5069577;28;20031;-69
2021/07/23 08:55:15;;;;;;;23.45;7.80;;;17.20;99.90;;;;;;5050895;28;20025;-68
2021/07/23 08:57:42;;;;;;;9.65;5.65;;;17.20;99.90;;;;;;5050768;28;20030;-68
2021/07/23 09:00:09;;;;;;;15.75;7.07;;;17.30;99.90;;;;;;5050808;28;20052;-68
2021/07/23 09:02:58;;;;;;;13.75;6.07;;;17.20;99.90;;;;;;5050212;28;20034;-69
2021/07/23 09:05:34;;;;;;;14.95;5.90;;;17.20;99.90;;;;;;5050343;28;20026;-69
2021/07/23 09:08:06;;;;;;;13.57;5.95;;;17.20;99.90;;;;;;5050744;28;20029;-70
2021/07/23 09:10:31;;;;;;;13.55;6.38;;;17.20;99.90;;;;;;5049677;28;20361;-68
2021/07/23 09:13:01;;;;;;;11.65;5.75;;;17.20;99.90;;;;;;5050686;28;20077;-68
2021/07/23 09:15:41;;;;;;;8.85;4.78;;;17.20;99.90;;;;;;5050643;28;20414;-69
2021/07/23 09:18:29;;;;;;;8.80;4.15;;;17.20;99.90;;;;;;5049332;28;20105;-67
2021/07/23 09:21:03;;;;;;;10.48;5.03;;;17.10;99.90;;;;;;5053118;28;20025;-71
2021/07/23 09:23:39;;;;;;;9.43;4.43;;;17.10;99.90;;;;;;5059789;28;20033;-69
2021/07/23 09:26:08;;;;;;;9.90;4.20;;;17.10;99.90;;;;;;5060138;28;20037;-69
2021/07/23 09:28:36;;;;;;;9.38;4.28;;;17.10;99.90;;;;;;5050303;28;20036;-71
2021/07/23 09:31:03;;;;;;;12.75;4.22;;;17.00;99.90;;;;;;5053260;28;20027;-70
2021/07/23 09:33:32;;;;;;;9.20;4.15;;;17.10;99.90;;;;;;5045357;28;20032;-70
2021/07/23 09:36:03;;;;;;;9.75;4.28;;;17.10;99.90;;;;;;5046953;28;20026;-72
2021/07/23 09:38:43;;;;;;;7.30;4.13;;;17.10;99.90;;;;;;5046273;28;20134;-72
2021/07/23 09:41:21;;;;;;;9.82;4.13;;;17.10;99.90;;;;;;5044455;28;20496;-71
2021/07/23 09:44:02;;;;;;;5.53;2.58;;;17.10;99.90;;;;;;5044079;28;20030;-69
2021/07/23 09:46:34;;;;;;;8.30;2.95;;;17.10;99.90;;;;;;5046276;28;20025;-70
2021/07/23 09:49:22;;;;;;;8.25;3.15;;;17.10;99.90;;;;;;5046080;28;20454;-72
2021/07/23 09:51:49;;;;;;;6.35;3.38;;;17.10;99.90;;;;;;5046227;28;20033;-70
2021/07/23 09:54:15;;;;;;;6.40;2.97;;;17.10;99.90;;;;;;5046471;28;20087;-71
2021/07/23 09:56:43;;;;;;;6.78;3.28;;;17.20;99.90;;;;;;5045541;28;20028;-70
2021/07/23 09:59:37;;;;;;;6.70;2.65;;;17.30;99.90;;;;;;5045832;28;20117;-71
2021/07/23 10:02:05;;;;;;;4.07;2.45;;;17.30;99.90;;;;;;5044024;28;20076;-70
2021/07/23 10:05:00;;;;;;;5.20;2.50;;;17.50;99.90;;;;;;5045538;28;20482;-72
2021/07/23 10:07:33;;;;;;;5.05;2.97;;;17.60;99.90;;;;;;5045753;28;20040;-70
2021/07/23 10:10:00;;;;;;;10.43;2.13;;;17.70;99.90;;;;;;5045801;28;20033;-70
2021/07/23 10:12:27;;;;;;;4.13;2.60;;;17.80;99.90;;;;;;5046658;28;20033;-72
2021/07/23 10:14:54;;;;;;;6.55;2.80;;;17.90;99.90;;;;;;5046340;28;20057;-71
2021/07/23 10:17:20;;;;;;;5.38;2.47;;;17.90;99.90;;;;;;5046142;28;20017;-71
2021/07/23 10:19:47;;;;;;;7.20;3.00;;;18.00;99.90;;;;;;5047170;28;20025;-70
2021/07/23 10:22:13;;;;;;;4.47;2.15;;;18.00;99.90;;;;;;5065211;28;20409;-70
2021/07/23 10:24:41;;;;;;;7.78;2.83;;;18.10;99.90;;;;;;5060295;28;20025;-71
2021/07/23 10:27:09;;;;;;;5.78;2.78;;;18.20;99.90;;;;;;5045133;28;20052;-71
2021/07/23 10:29:55;;;;;;;5.25;2.80;;;18.20;99.90;;;;;;5065451;28;20032;-70
2021/07/23 10:32:23;;;;;;;8.23;3.17;;;18.30;99.90;;;;;;5066491;28;20025;-70
2021/07/23 10:34:50;;;;;;;4.15;2.28;;;18.40;99.90;;;;;;5055378;28;20037;-68
2021/07/23 10:37:31;;;;;;;4.10;2.60;;;18.50;99.90;;;;;;5058930;28;20036;-70
2021/07/23 10:40:08;;;;;;;4.65;3.03;;;18.50;99.90;;;;;;5049053;28;20041;-68
2021/07/23 10:42:42;;;;;;;8.65;2.50;;;18.60;99.90;;;;;;5045990;28;20034;-70
2021/07/23 10:45:12;;;;;;;6.07;3.10;;;18.70;99.90;;;;;;5058671;28;20025;-71
2021/07/23 10:47:43;;;;;;;5.22;2.55;;;18.70;99.90;;;;;;5066134;28;20427;-69
2021/07/23 10:50:14;;;;;;;4.72;2.90;;;18.70;99.90;;;;;;5066012;28;20025;-68
2021/07/23 10:52:40;;;;;;;9.55;2.30;;;18.80;99.90;;;;;;5066062;28;20163;-69
2021/07/23 10:55:11;;;;;;;6.15;2.60;;;18.90;99.90;;;;;;5048485;28;20029;-69
2021/07/23 10:57:37;;;;;;;2.78;2.13;;;19.00;99.90;;;;;;5064398;28;20063;-70
2021/07/23 11:00:04;;;;;;;3.75;2.40;;;19.20;99.90;;;;;;5065802;28;20021;-69
2021/07/23 11:02:29;;;;;;;8.40;2.78;;;19.30;99.90;;;;;;5065560;28;20037;-70
2021/07/23 11:05:27;;;;;;;6.40;2.60;;;19.40;99.90;;;;;;5066012;28;20036;-70
2021/07/23 11:07:57;;;;;;;6.13;2.63;;;19.70;99.90;;;;;;5050481;28;20032;-70
2021/07/23 11:10:23;;;;;;;4.28;2.67;;;19.90;99.90;;;;;;5065624;28;20600;-71
2021/07/23 11:12:49;;;;;;;4.70;2.95;;;20.20;99.90;;;;;;5065753;28;20029;-71
2021/07/23 11:15:16;;;;;;;7.45;2.92;;;20.40;99.90;;;;;;5065398;28;20060;-69
2021/07/23 11:17:57;;;;;;;4.43;2.65;;;20.70;99.90;;;;;;5065484;28;20099;-69
2021/07/23 11:20:26;;;;;;;6.05;2.13;;;20.60;99.90;;;;;;5065592;28;20039;-69
2021/07/23 11:22:52;;;;;;;5.57;2.55;;;20.60;99.90;;;;;;5065325;28;20048;-71
2021/07/23 11:25:19;;;;;;;6.90;3.30;;;20.40;99.90;;;;;;5052140;28;20037;-69
2021/07/23 11:27:49;;;;;;;8.20;3.58;;;20.30;99.90;;;;;;5045211;28;20051;-69
2021/07/23 11:30:17;;;;;;;4.30;2.38;;;20.30;99.90;;;;;;5045085;28;20035;-70
2021/07/23 11:32:54;;;;;;;4.78;2.30;;;20.20;99.90;;;;;;5051267;28;20089;-70
2021/07/23 11:35:21;;;;;;;4.43;2.30;;;20.10;99.90;;;;;;5065560;28;20025;-69
2021/07/23 11:37:48;;;;;;;4.88;2.55;;;20.00;99.90;;;;;;5064945;28;20096;-70
2021/07/23 11:40:18;;;;;;;3.63;2.33;;;19.90;99.90;;;;;;5057538;28;20047;-70
2021/07/23 11:42:54;;;;;;;5.72;2.58;;;19.80;99.90;;;;;;5044601;28;20145;-70
2021/07/23 11:45:22;;;;;;;2.75;1.80;;;19.60;99.90;;;;;;5045227;28;20053;-70
2021/07/23 11:47:49;;;;;;;6.15;2.72;;;19.60;99.90;;;;;;5045148;28;20022;-69
2021/07/23 11:50:20;;;;;;;7.70;2.15;;;19.50;99.90;;;;;;5045093;28;20075;-69
2021/07/23 11:52:47;;;;;;;5.32;2.15;;;19.50;99.90;;;;;;5044852;28;20026;-71
2021/07/23 11:55:15;;;;;;;3.85;2.20;;;19.50;99.90;;;;;;5044291;28;20033;-68
2021/07/23 11:57:44;;;;;;;3.83;2.33;;;19.40;99.90;;;;;;5044395;28;20029;-70
2021/07/23 12:00:24;;;;;;;4.93;1.95;;;19.40;99.90;;;;;;5043468;28;20056;-69
2021/07/23 12:02:52;;;;;;;5.25;2.38;;;19.40;99.90;;;;;;5044692;28;20053;-71
2021/07/23 12:05:19;;;;;;;5.53;2.30;;;19.50;99.90;;;;;;5044780;28;20022;-70
2021/07/23 12:07:56;;;;;;;7.47;3.17;;;19.50;99.90;;;;;;5044756;28;20041;-70
2021/07/23 12:10:22;;;;;;;7.78;2.67;;;19.60;99.90;;;;;;5044932;28;20017;-71
2021/07/23 12:12:48;;;;;;;5.78;2.67;;;19.60;99.90;;;;;;5044696;28;20037;-70
2021/07/23 12:15:14;;;;;;;4.20;1.80;;;19.60;99.90;;;;;;5044604;28;20061;-70
2021/07/23 12:17:45;;;;;;;7.57;3.17;;;19.70;99.90;;;;;;5043049;28;20026;-72
2021/07/23 12:20:12;;;;;;;5.93;2.15;;;19.80;99.90;;;;;;5044619;28;20040;-71
2021/07/23 12:22:38;;;;;;;4.07;2.33;;;19.70;99.90;;;;;;5044443;28;20028;-71
2021/07/23 12:25:39;;;;;;;3.72;2.58;;;19.70;99.90;;;;;;5044474;28;20030;-71
2021/07/23 12:28:13;;;;;;;3.22;1.98;;;19.60;99.90;;;;;;5033565;28;20053;-69
2021/07/23 12:30:40;;;;;;;3.15;2.38;;;19.70;99.90;;;;;;5044546;28;20028;-68
2021/07/23 12:33:19;;;;;;;4.00;2.30;;;19.60;99.90;;;;;;5044500;28;20048;-70
2021/07/23 12:35:46;;;;;;;5.45;2.53;;;19.70;99.90;;;;;;5044545;28;20100;-68
2021/07/23 12:38:13;;;;;;;7.50;2.22;;;19.70;99.90;;;;;;5044517;28;20041;-70
2021/07/23 12:40:49;;;;;;;3.72;1.88;;;19.80;99.90;;;;;;5044300;28;20017;-71
2021/07/23 12:43:19;;;;;;;13.02;2.97;;;19.80;99.90;;;;;;5044300;28;20172;-70
2021/07/23 12:45:48;;;;;;;5.72;2.47;;;19.90;99.90;;;;;;5044362;28;20022;-71